Time;durP1;ratioP1;P1;durP2;ratioP2;P2;SDS_P1;SDS_P2;PMS_P1;PMS_P2;Temp;Humidity;BMP_temperature;BMP_pressure;BME280_temperature;BME280_humidity;BME280_pressure;Samples;Min_cycle;Max_cycle;Signal;HPM_P1;HPM_P2
2020/12/29 00:01:40;;;;;;;9.30;6.28;;;9.70;83.10;;;;;;5093805;28;20109;-46
2020/12/29 00:04:16;;;;;;;8.55;6.35;;;9.80;83.20;;;;;;5110619;28;20043;-49
2020/12/29 00:06:53;;;;;;;9.20;6.25;;;9.70;83.10;;;;;;5097083;28;20554;-44
2020/12/29 00:09:21;;;;;;;9.43;6.70;;;9.70;83.10;;;;;;5111590;28;20055;-44
2020/12/29 00:11:48;;;;;;;8.70;6.15;;;9.70;83.20;;;;;;5095051;28;20051;-45
2020/12/29 00:14:14;;;;;;;8.35;6.22;;;9.70;83.20;;;;;;5112645;28;20052;-44
2020/12/29 00:16:41;;;;;;;8.13;6.30;;;9.70;83.30;;;;;;5102487;28;20043;-44
2020/12/29 00:19:11;;;;;;;10.07;7.07;;;9.70;83.20;;;;;;5093850;28;20058;-44
2020/12/29 00:21:40;;;;;;;7.95;6.47;;;9.70;83.20;;;;;;5092264;28;20091;-45
2020/12/29 00:24:06;;;;;;;9.32;6.85;;;9.70;83.30;;;;;;5092450;28;20094;-44
2020/12/29 00:26:32;;;;;;;8.15;6.35;;;9.70;83.30;;;;;;5093448;28;20114;-43
2020/12/29 00:28:58;;;;;;;10.05;6.68;;;9.80;83.30;;;;;;5093635;28;20048;-44
2020/12/29 00:31:24;;;;;;;9.88;6.95;;;9.70;83.20;;;;;;5112172;28;20051;-44
2020/12/29 00:33:52;;;;;;;8.88;6.57;;;9.70;83.20;;;;;;5115138;28;20498;-45
2020/12/29 00:36:18;;;;;;;8.02;6.60;;;9.70;83.10;;;;;;5095933;28;20048;-44
2020/12/29 00:38:45;;;;;;;9.10;6.53;;;9.70;83.20;;;;;;5096400;28;20119;-46
2020/12/29 00:41:12;;;;;;;8.23;6.18;;;9.70;83.20;;;;;;5096466;28;20048;-44
2020/12/29 00:43:39;;;;;;;9.63;6.82;;;9.70;83.20;;;;;;5095641;28;20044;-45
2020/12/29 00:46:11;;;;;;;10.10;6.57;;;9.70;83.20;;;;;;5097826;28;20051;-45
2020/12/29 00:48:37;;;;;;;9.77;7.20;;;9.70;83.30;;;;;;5111993;28;20036;-46
2020/12/29 00:51:08;;;;;;;9.73;7.10;;;9.70;83.30;;;;;;5096845;28;20407;-43
2020/12/29 00:53:35;;;;;;;7.88;6.22;;;9.70;83.30;;;;;;5099189;28;20121;-45
2020/12/29 00:56:03;;;;;;;8.90;7.13;;;9.80;83.30;;;;;;5116027;28;20071;-46
2020/12/29 00:58:29;;;;;;;8.60;6.20;;;9.70;83.30;;;;;;5104264;28;20044;-45
2020/12/29 01:00:55;;;;;;;8.73;6.63;;;9.70;83.20;;;;;;5110266;28;20054;-44
2020/12/29 01:03:21;;;;;;;8.80;6.55;;;9.70;83.30;;;;;;5114290;28;20058;-45
2020/12/29 01:05:47;;;;;;;9.02;6.00;;;9.70;83.30;;;;;;5096335;28;20052;-45
2020/12/29 01:08:13;;;;;;;8.25;6.57;;;9.70;83.30;;;;;;5095319;28;20044;-48
2020/12/29 01:10:39;;;;;;;7.55;6.10;;;9.70;83.40;;;;;;5096511;28;20052;-49
2020/12/29 01:13:06;;;;;;;7.72;5.47;;;9.70;83.30;;;;;;5095022;28;20051;-49
2020/12/29 01:15:33;;;;;;;7.38;5.60;;;9.70;83.40;;;;;;5095139;28;20480;-47
2020/12/29 01:17:58;;;;;;;7.90;5.90;;;9.80;83.30;;;;;;5095122;28;20434;-47
2020/12/29 01:20:25;;;;;;;8.63;6.53;;;9.70;83.30;;;;;;5105838;28;20059;-49
2020/12/29 01:22:52;;;;;;;11.50;6.32;;;9.70;83.30;;;;;;5094391;28;20492;-44
2020/12/29 01:25:18;;;;;;;8.32;6.65;;;9.70;83.30;;;;;;5095052;28;20044;-48
2020/12/29 01:27:45;;;;;;;7.72;6.53;;;9.70;83.30;;;;;;5094973;28;20492;-47
2020/12/29 01:30:10;;;;;;;9.15;6.28;;;9.70;83.30;;;;;;5104655;28;20123;-46
2020/12/29 01:32:37;;;;;;;9.52;6.65;;;9.70;83.30;;;;;;5113403;28;20055;-46
2020/12/29 01:35:03;;;;;;;10.07;6.65;;;9.70;83.30;;;;;;5099378;28;20074;-46
2020/12/29 01:37:29;;;;;;;8.35;6.22;;;9.70;83.30;;;;;;5111778;28;20126;-45
2020/12/29 01:39:55;;;;;;;7.30;5.93;;;9.70;83.20;;;;;;5115151;27;20131;-44
2020/12/29 01:42:21;;;;;;;8.18;6.10;;;9.80;83.30;;;;;;5109658;28;20055;-42
2020/12/29 01:44:47;;;;;;;7.90;5.75;;;9.70;83.30;;;;;;5094729;28;20412;-45
2020/12/29 01:47:13;;;;;;;9.35;6.47;;;9.70;83.30;;;;;;5107192;28;20535;-43
2020/12/29 01:49:39;;;;;;;9.40;6.45;;;9.70;83.20;;;;;;5097246;28;20098;-44
2020/12/29 01:52:04;;;;;;;8.40;6.15;;;9.70;83.20;;;;;;5094653;28;20051;-45
2020/12/29 01:54:30;;;;;;;8.05;6.53;;;9.70;83.20;;;;;;5095548;28;20474;-44
2020/12/29 01:56:56;;;;;;;8.20;6.30;;;9.70;83.20;;;;;;5110834;28;20048;-45
2020/12/29 01:59:22;;;;;;;8.63;5.93;;;9.70;83.10;;;;;;5114458;28;20051;-44
2020/12/29 02:01:50;;;;;;;9.15;6.38;;;9.70;83.20;;;;;;5105846;28;20083;-44
2020/12/29 02:04:16;;;;;;;8.50;5.85;;;9.70;83.20;;;;;;5094993;28;20831;-43
2020/12/29 02:06:41;;;;;;;8.55;6.20;;;9.70;83.20;;;;;;5094305;28;20071;-42
2020/12/29 02:09:08;;;;;;;9.40;6.68;;;9.70;83.20;;;;;;5094039;28;20048;-44
2020/12/29 02:11:35;;;;;;;9.68;6.70;;;9.70;83.20;;;;;;5094155;28;20048;-44
2020/12/29 02:14:01;;;;;;;7.60;5.78;;;9.70;83.30;;;;;;5109961;28;20090;-44
2020/12/29 02:16:27;;;;;;;8.77;6.15;;;9.70;83.30;;;;;;5113540;28;20078;-48
2020/12/29 02:18:53;;;;;;;9.38;6.25;;;9.70;83.20;;;;;;5107760;28;20079;-45
2020/12/29 02:21:18;;;;;;;9.60;6.88;;;9.70;83.20;;;;;;5094687;28;20048;-45
2020/12/29 02:23:44;;;;;;;7.75;5.93;;;9.70;83.20;;;;;;5094054;28;20480;-47
2020/12/29 02:26:10;;;;;;;6.82;5.38;;;9.70;83.10;;;;;;5107896;28;20135;-45
2020/12/29 02:28:35;;;;;;;8.73;6.28;;;9.70;83.10;;;;;;5110326;28;20043;-46
2020/12/29 02:31:01;;;;;;;7.57;6.03;;;9.70;83.10;;;;;;5101296;28;20039;-44
2020/12/29 02:33:27;;;;;;;8.05;5.90;;;9.70;83.10;;;;;;5112113;28;20043;-47
2020/12/29 02:35:53;;;;;;;7.70;5.75;;;9.70;83.10;;;;;;5112479;28;20395;-48
2020/12/29 02:38:20;;;;;;;9.23;6.63;;;9.70;83.10;;;;;;5114237;28;20051;-43
2020/12/29 02:40:47;;;;;;;8.65;6.45;;;9.70;83.10;;;;;;5109466;28;20067;-43
2020/12/29 02:43:13;;;;;;;8.57;6.38;;;9.70;83.10;;;;;;5103679;28;20044;-43
2020/12/29 02:45:38;;;;;;;10.07;6.55;;;9.70;83.10;;;;;;5114174;28;20081;-43
2020/12/29 02:48:04;;;;;;;8.05;6.30;;;9.70;83.10;;;;;;5097704;28;20101;-42
2020/12/29 02:50:31;;;;;;;6.40;5.32;;;9.70;83.10;;;;;;5113271;28;20058;-42
2020/12/29 02:52:58;;;;;;;7.78;5.88;;;9.70;83.10;;;;;;5113704;28;20067;-43
2020/12/29 02:55:24;;;;;;;6.95;5.78;;;9.70;83.00;;;;;;5112392;28;20410;-43
2020/12/29 02:57:49;;;;;;;8.43;6.50;;;9.70;83.10;;;;;;5109936;28;20143;-43
2020/12/29 03:00:15;;;;;;;7.35;5.88;;;9.70;83.00;;;;;;5093636;28;20050;-44
2020/12/29 03:02:41;;;;;;;9.05;6.65;;;9.70;83.10;;;;;;5094132;28;20488;-45
2020/12/29 03:05:06;;;;;;;8.10;6.03;;;9.70;83.00;;;;;;5105294;28;20043;-44
2020/12/29 03:07:32;;;;;;;8.57;6.13;;;9.70;83.00;;;;;;5113504;28;20101;-45
2020/12/29 03:09:58;;;;;;;7.45;6.05;;;9.70;83.00;;;;;;5113365;28;20088;-47
2020/12/29 03:12:23;;;;;;;9.60;6.28;;;9.70;82.90;;;;;;5113481;28;20075;-45
2020/12/29 03:14:49;;;;;;;8.82;6.22;;;9.70;82.90;;;;;;5095045;27;20040;-44
2020/12/29 03:17:15;;;;;;;8.50;5.93;;;9.70;83.00;;;;;;5098602;28;20051;-46
2020/12/29 03:19:40;;;;;;;7.70;5.60;;;9.70;83.00;;;;;;5100307;28;20052;-44
2020/12/29 03:22:06;;;;;;;8.02;6.00;;;9.70;82.90;;;;;;5092864;28;20051;-46
2020/12/29 03:24:32;;;;;;;9.15;6.47;;;9.70;83.00;;;;;;5102668;28;20048;-49
2020/12/29 03:26:57;;;;;;;8.57;5.72;;;9.70;82.90;;;;;;5113426;28;20092;-46
2020/12/29 03:29:23;;;;;;;7.70;5.35;;;9.70;82.90;;;;;;5094492;28;20495;-44
2020/12/29 03:31:49;;;;;;;9.05;6.32;;;9.70;82.90;;;;;;5092858;28;20055;-44
2020/12/29 03:34:24;;;;;;;8.02;5.70;;;9.70;82.90;;;;;;5108478;28;20040;-43
2020/12/29 03:36:50;;;;;;;;;;;9.70;82.90;;;;;;5111922;28;20071;-43
2020/12/29 03:39:16;;;;;;;;;;;9.70;83.10;;;;;;5093585;28;19955;-44
2020/12/29 03:41:42;;;;;;;;;;;9.70;83.20;;;;;;5093386;28;19989;-45
2020/12/29 03:44:08;;;;;;;7.57;5.80;;;9.60;83.10;;;;;;5113122;28;19927;-45
2020/12/29 03:46:34;;;;;;;7.70;6.03;;;9.70;83.00;;;;;;5106949;28;20052;-43
2020/12/29 03:49:00;;;;;;;7.72;5.65;;;9.70;83.00;;;;;;5099929;28;20050;-45
2020/12/29 03:51:25;;;;;;;7.50;5.60;;;9.70;83.00;;;;;;5101749;28;20048;-45
2020/12/29 03:53:51;;;;;;;6.65;5.50;;;9.70;83.00;;;;;;5102134;28;20048;-46
2020/12/29 03:56:17;;;;;;;7.78;6.13;;;9.70;83.00;;;;;;5111527;28;20051;-47
2020/12/29 03:58:42;;;;;;;6.88;5.47;;;9.70;83.00;;;;;;5112988;28;20047;-45
2020/12/29 04:01:08;;;;;;;8.27;5.93;;;9.70;82.90;;;;;;5106462;28;20044;-48
2020/12/29 04:03:34;;;;;;;8.13;6.30;;;9.70;82.90;;;;;;5093791;28;20100;-45
2020/12/29 04:05:59;;;;;;;7.47;5.78;;;9.70;82.90;;;;;;5096104;28;20071;-43
2020/12/29 04:08:25;;;;;;;8.32;5.72;;;9.70;83.00;;;;;;5097386;28;20079;-44
2020/12/29 04:10:51;;;;;;;7.10;5.72;;;9.70;83.00;;;;;;5109802;28;20071;-46
2020/12/29 04:13:16;;;;;;;8.52;5.57;;;9.70;83.00;;;;;;5108221;28;20055;-46
2020/12/29 04:15:42;;;;;;;6.50;5.85;;;9.70;83.00;;;;;;5096268;28;20044;-47
2020/12/29 04:18:08;;;;;;;7.85;5.55;;;9.70;82.90;;;;;;5097630;28;20092;-44
2020/12/29 04:20:33;;;;;;;7.05;5.40;;;9.70;82.90;;;;;;5116324;28;20074;-46
2020/12/29 04:22:59;;;;;;;6.75;5.13;;;9.70;82.90;;;;;;5107183;28;20055;-46
2020/12/29 04:25:25;;;;;;;7.53;4.90;;;9.70;82.90;;;;;;5096302;28;20537;-43
2020/12/29 04:27:50;;;;;;;6.93;5.70;;;9.70;82.90;;;;;;5097400;28;20043;-44
2020/12/29 04:30:16;;;;;;;7.43;5.60;;;9.70;83.00;;;;;;5096346;28;20404;-49
2020/12/29 04:32:42;;;;;;;6.65;5.05;;;9.70;83.00;;;;;;5096157;28;20044;-45
2020/12/29 04:35:08;;;;;;;6.88;4.88;;;9.70;82.90;;;;;;5095939;28;20056;-45
2020/12/29 04:37:34;;;;;;;6.45;4.93;;;9.70;82.90;;;;;;5095987;28;20407;-44
2020/12/29 04:40:00;;;;;;;7.15;5.53;;;9.70;83.00;;;;;;5097454;28;20113;-46
2020/12/29 04:42:27;;;;;;;6.43;5.47;;;9.70;82.90;;;;;;5095815;28;20044;-45
2020/12/29 04:44:54;;;;;;;6.07;4.95;;;9.70;82.90;;;;;;5111892;28;20418;-44
2020/12/29 04:47:19;;;;;;;6.45;4.95;;;9.70;83.00;;;;;;5107419;28;20052;-43
2020/12/29 04:49:45;;;;;;;6.63;5.30;;;9.70;82.90;;;;;;5096636;28;20047;-43
2020/12/29 04:52:11;;;;;;;6.90;5.22;;;9.70;82.90;;;;;;5095826;28;20118;-40
2020/12/29 04:54:39;;;;;;;6.00;5.10;;;9.70;82.90;;;;;;5107723;28;20047;-45
2020/12/29 04:57:07;;;;;;;6.38;5.32;;;9.70;82.90;;;;;;5115976;28;20055;-44
2020/12/29 04:59:34;;;;;;;7.43;5.50;;;9.70;83.20;;;;;;5105014;28;20040;-44
2020/12/29 05:02:01;;;;;;;6.40;5.38;;;9.70;82.90;;;;;;5095562;28;20109;-44
2020/12/29 05:04:30;;;;;;;6.20;5.20;;;9.70;82.90;;;;;;5106333;28;20067;-43
2020/12/29 05:06:56;;;;;;;6.78;5.40;;;9.70;82.90;;;;;;5114346;28;20044;-44
2020/12/29 05:09:23;;;;;;;8.63;5.22;;;9.70;82.90;;;;;;5105309;27;20048;-44
2020/12/29 05:11:50;;;;;;;8.05;6.10;;;9.60;82.90;;;;;;5096793;28;20050;-43
2020/12/29 05:14:16;;;;;;;7.13;5.78;;;9.70;82.90;;;;;;5115613;28;20050;-44
2020/12/29 05:16:42;;;;;;;6.75;4.97;;;9.70;82.90;;;;;;5115007;28;20074;-44
2020/12/29 05:19:15;;;;;;;6.95;5.47;;;9.70;82.90;;;;;;5115112;28;20064;-43
2020/12/29 05:21:42;;;;;;;7.15;5.30;;;9.70;82.80;;;;;;5114088;28;20134;-44
2020/12/29 05:24:11;;;;;;;6.88;5.05;;;9.70;82.90;;;;;;5115325;28;20048;-46
2020/12/29 05:26:37;;;;;;;7.07;5.30;;;9.70;82.80;;;;;;5102937;28;20036;-47
2020/12/29 05:29:07;;;;;;;6.65;5.18;;;9.70;82.90;;;;;;5095250;28;20127;-44
2020/12/29 05:31:35;;;;;;;6.55;4.93;;;9.70;82.90;;;;;;5104858;28;20131;-48
2020/12/29 05:34:01;;;;;;;6.18;5.07;;;9.70;82.90;;;;;;5115513;28;20066;-48
2020/12/29 05:36:28;;;;;;;7.28;5.07;;;9.60;82.90;;;;;;5115225;28;20075;-43
2020/12/29 05:39:02;;;;;;;6.65;4.93;;;9.70;82.90;;;;;;5104320;28;20485;-44
2020/12/29 05:41:30;;;;;;;6.25;5.00;;;9.70;83.50;;;;;;5095652;28;20127;-45
2020/12/29 05:44:03;;;;;;;5.85;4.72;;;9.70;82.90;;;;;;5094923;28;20044;-44
2020/12/29 05:46:30;;;;;;;6.15;4.95;;;9.70;82.90;;;;;;5095637;28;20131;-45
2020/12/29 05:48:57;;;;;;;5.65;4.90;;;9.60;82.80;;;;;;5094912;28;20052;-49
2020/12/29 05:51:24;;;;;;;6.85;4.93;;;9.70;82.80;;;;;;5094690;28;20071;-49
2020/12/29 05:53:50;;;;;;;6.03;4.88;;;9.70;82.80;;;;;;5101414;28;20040;-43
2020/12/29 05:56:19;;;;;;;6.30;5.53;;;9.60;82.80;;;;;;5114725;28;20134;-43
2020/12/29 05:58:45;;;;;;;6.70;5.07;;;9.60;82.80;;;;;;5109504;28;20047;-44
2020/12/29 06:01:10;;;;;;;6.78;5.32;;;9.60;82.70;;;;;;5094322;28;20454;-47
2020/12/29 06:03:38;;;;;;;6.03;4.93;;;9.60;82.70;;;;;;5095249;28;20087;-47
2020/12/29 06:06:07;;;;;;;5.72;4.72;;;9.60;82.70;;;;;;5095404;28;20052;-46
2020/12/29 06:08:35;;;;;;;5.25;4.50;;;9.60;82.70;;;;;;5094592;28;20052;-48
2020/12/29 06:11:11;;;;;;;5.43;4.47;;;9.60;82.70;;;;;;5093944;28;20040;-49
2020/12/29 06:13:38;;;;;;;6.22;4.85;;;9.60;82.50;;;;;;5095110;28;20040;-47
2020/12/29 06:16:04;;;;;;;6.78;5.45;;;9.60;82.70;;;;;;5093849;28;20051;-46
2020/12/29 06:18:37;;;;;;;6.20;5.20;;;9.70;82.80;;;;;;5107464;28;20044;-44
2020/12/29 06:21:05;;;;;;;5.55;4.97;;;9.60;82.70;;;;;;5093858;28;20044;-45
2020/12/29 06:23:41;;;;;;;5.03;4.38;;;9.60;82.70;;;;;;5104363;28;20058;-48
2020/12/29 06:26:09;;;;;;;6.80;5.15;;;9.60;82.60;;;;;;5112751;28;20043;-48
2020/12/29 06:28:43;;;;;;;6.95;5.15;;;9.60;82.70;;;;;;5113482;28;20066;-46
2020/12/29 06:31:12;;;;;;;6.53;5.20;;;9.60;82.70;;;;;;5092653;28;20047;-43
2020/12/29 06:33:39;;;;;;;6.20;4.78;;;9.60;83.30;;;;;;5093881;28;20048;-45
2020/12/29 06:36:08;;;;;;;6.47;5.10;;;9.60;82.70;;;;;;5094581;28;20480;-48
2020/12/29 06:38:38;;;;;;;5.70;4.55;;;9.60;82.70;;;;;;5096898;28;20047;-44
2020/12/29 06:41:05;;;;;;;7.10;5.30;;;9.60;82.70;;;;;;5105539;28;20048;-48
2020/12/29 06:43:32;;;;;;;5.85;4.93;;;9.70;82.80;;;;;;5103793;28;20129;-47
2020/12/29 06:46:12;;;;;;;7.55;6.03;;;9.60;82.70;;;;;;5095130;28;20165;-43
2020/12/29 06:48:38;;;;;;;6.10;4.88;;;9.60;82.70;;;;;;5093467;28;20166;-48
2020/12/29 06:51:09;;;;;;;5.85;4.78;;;9.60;82.70;;;;;;5101083;28;20055;-45
2020/12/29 06:53:37;;;;;;;5.28;4.68;;;9.60;82.60;;;;;;5109873;27;20051;-47
2020/12/29 06:56:03;;;;;;;6.10;4.82;;;9.60;82.60;;;;;;5094509;28;20036;-47
2020/12/29 06:58:33;;;;;;;5.75;4.93;;;9.60;82.60;;;;;;5095718;28;20122;-49
2020/12/29 07:01:17;;;;;;;6.68;4.63;;;9.60;82.70;;;;;;5113725;28;20512;-45
2020/12/29 07:03:43;;;;;;;6.05;4.95;;;9.60;82.60;;;;;;5108665;28;20044;-44
2020/12/29 07:06:09;;;;;;;5.93;4.70;;;9.60;82.60;;;;;;5094334;28;20054;-46
2020/12/29 07:08:38;;;;;;;6.28;5.10;;;9.60;82.70;;;;;;5109671;28;20510;-46
2020/12/29 07:11:22;;;;;;;5.55;4.43;;;9.60;83.30;;;;;;5093596;28;20044;-44
2020/12/29 07:13:51;;;;;;;5.93;4.57;;;9.60;82.60;;;;;;5108008;28;20054;-46
2020/12/29 07:16:25;;;;;;;5.85;4.72;;;9.60;82.60;;;;;;5097943;28;20094;-44
2020/12/29 07:18:52;;;;;;;5.55;4.78;;;9.70;82.70;;;;;;5094292;28;20127;-43
2020/12/29 07:21:28;;;;;;;6.18;4.82;;;9.60;82.60;;;;;;5093320;28;20048;-45
2020/12/29 07:23:55;;;;;;;6.30;5.00;;;9.60;82.60;;;;;;5093897;28;20526;-44
2020/12/29 07:26:22;;;;;;;5.47;4.60;;;9.60;82.60;;;;;;5093043;28;20044;-44
2020/12/29 07:28:55;;;;;;;6.55;4.88;;;9.60;82.60;;;;;;5093752;28;20071;-47
2020/12/29 07:31:21;;;;;;;5.78;4.93;;;9.60;82.60;;;;;;5099894;28;20054;-40
2020/12/29 07:33:54;;;;;;;5.90;4.93;;;9.60;82.70;;;;;;5113087;28;20048;-45
2020/12/29 07:36:21;;;;;;;6.47;5.20;;;9.60;82.60;;;;;;5113235;28;20047;-43
2020/12/29 07:38:49;;;;;;;5.93;5.00;;;9.60;82.60;;;;;;5110767;28;20044;-45
2020/12/29 07:41:19;;;;;;;6.18;4.57;;;9.60;82.60;;;;;;5098340;28;20048;-43
2020/12/29 07:43:46;;;;;;;5.38;4.78;;;9.60;82.50;;;;;;5104348;28;20071;-44
2020/12/29 07:46:12;;;;;;;6.00;4.88;;;9.60;82.50;;;;;;5097389;28;20055;-43
2020/12/29 07:48:39;;;;;;;5.75;4.68;;;9.60;82.50;;;;;;5097509;28;20055;-42
2020/12/29 07:51:05;;;;;;;5.97;4.78;;;9.60;82.60;;;;;;5096928;28;20094;-43
2020/12/29 07:53:31;;;;;;;5.35;4.30;;;9.60;82.50;;;;;;5107490;28;20039;-46
2020/12/29 07:55:57;;;;;;;7.03;5.25;;;9.60;82.60;;;;;;5117185;27;20491;-45
2020/12/29 07:58:24;;;;;;;6.55;5.05;;;9.60;82.50;;;;;;5099965;27;20101;-45
2020/12/29 08:00:49;;;;;;;5.30;4.53;;;9.60;82.60;;;;;;5097620;28;20036;-43
2020/12/29 08:03:17;;;;;;;5.88;4.82;;;9.60;82.60;;;;;;5097322;28;20089;-43
2020/12/29 08:05:44;;;;;;;6.63;5.15;;;9.60;82.50;;;;;;5117065;28;20044;-41
2020/12/29 08:08:11;;;;;;;5.95;4.82;;;9.60;82.50;;;;;;5115381;28;20087;-44
2020/12/29 08:10:42;;;;;;;5.80;5.00;;;9.60;82.50;;;;;;5115314;28;20048;-43
2020/12/29 08:13:10;;;;;;;14.95;10.38;;;9.60;82.60;;;;;;5116454;28;20434;-44
2020/12/29 08:15:40;;;;;;;14.32;9.73;;;9.50;81.50;;;;;;5116524;28;20046;-45
2020/12/29 08:18:10;;;;;;;14.75;10.15;;;9.30;81.80;;;;;;5101798;28;20048;-47
2020/12/29 08:20:50;;;;;;;12.52;9.52;;;9.30;81.90;;;;;;5097503;28;20069;-43
2020/12/29 08:23:20;;;;;;;13.23;10.60;;;9.40;82.20;;;;;;5096835;28;20056;-44
2020/12/29 08:25:50;;;;;;;12.20;9.73;;;9.30;82.20;;;;;;5096485;28;20044;-44
2020/12/29 08:28:16;;;;;;;13.80;9.82;;;9.30;82.20;;;;;;5095949;28;20052;-47
2020/12/29 08:30:42;;;;;;;12.68;9.82;;;9.30;82.30;;;;;;5106660;28;20479;-45
2020/12/29 08:33:08;;;;;;;12.55;9.80;;;9.40;82.30;;;;;;5114951;28;20130;-47
2020/12/29 08:35:45;;;;;;;12.23;9.57;;;9.40;82.30;;;;;;5114825;28;20048;-41
2020/12/29 08:38:10;;;;;;;11.40;8.85;;;9.40;82.30;;;;;;5099945;28;20403;-46
2020/12/29 08:40:44;;;;;;;13.85;10.25;;;9.40;82.30;;;;;;5100195;28;20044;-43
2020/12/29 08:43:10;;;;;;;13.90;10.10;;;9.40;82.30;;;;;;5095856;28;20488;-44
2020/12/29 08:45:35;;;;;;;14.07;10.45;;;9.40;82.30;;;;;;5095680;28;20047;-46
2020/12/29 08:48:01;;;;;;;13.65;9.95;;;9.40;82.30;;;;;;5096980;28;20125;-44
2020/12/29 08:50:30;;;;;;;10.57;9.00;;;9.40;82.30;;;;;;5112719;28;20101;-40
2020/12/29 08:53:11;;;;;;;12.73;9.50;;;9.40;82.30;;;;;;5116468;28;20138;-45
2020/12/29 08:55:39;;;;;;;12.25;9.52;;;9.40;82.30;;;;;;5116077;28;20043;-39
2020/12/29 08:58:05;;;;;;;10.90;8.48;;;9.40;82.30;;;;;;5116355;28;20075;-45
2020/12/29 09:00:31;;;;;;;12.95;9.65;;;9.40;82.30;;;;;;5115979;28;20044;-42
2020/12/29 09:02:58;;;;;;;11.00;8.93;;;9.50;82.40;;;;;;5115884;28;20044;-40
2020/12/29 09:05:28;;;;;;;11.77;9.45;;;9.40;82.30;;;;;;5115967;27;20108;-38
2020/12/29 09:07:55;;;;;;;12.48;9.38;;;9.40;82.30;;;;;;5115835;28;20067;-41
2020/12/29 09:10:22;;;;;;;11.30;8.77;;;9.50;82.40;;;;;;5115642;28;20044;-41
2020/12/29 09:12:48;;;;;;;10.90;9.25;;;9.50;82.40;;;;;;5115906;28;20093;-42
2020/12/29 09:15:24;;;;;;;11.70;8.35;;;9.40;82.30;;;;;;5115701;28;20119;-42
2020/12/29 09:17:57;;;;;;;11.18;8.70;;;9.50;82.40;;;;;;5115897;28;20047;-45
2020/12/29 09:20:30;;;;;;;11.75;8.90;;;9.60;82.40;;;;;;5115596;28;20491;-50
2020/12/29 09:23:00;;;;;;;12.15;8.73;;;9.50;82.40;;;;;;5115334;28;20063;-41
2020/12/29 09:25:36;;;;;;;10.32;7.88;;;9.50;82.40;;;;;;5115781;28;20097;-45
2020/12/29 09:28:23;;;;;;;11.55;8.88;;;9.50;82.40;;;;;;5115483;28;20058;-42
2020/12/29 09:31:01;;;;;;;11.60;8.90;;;9.50;82.40;;;;;;5115274;28;20096;-46
2020/12/29 09:33:29;;;;;;;10.60;8.85;;;9.50;82.40;;;;;;5115151;28;20067;-41
2020/12/29 09:35:58;;;;;;;11.13;8.45;;;9.50;82.40;;;;;;5115644;27;20131;-41
2020/12/29 09:38:24;;;;;;;11.27;8.30;;;9.50;82.40;;;;;;5115444;28;20043;-42
2020/12/29 09:40:50;;;;;;;12.45;7.97;;;9.50;82.40;;;;;;5115298;28;20048;-45
2020/12/29 09:43:16;;;;;;;10.30;8.07;;;9.50;82.40;;;;;;5115091;28;20052;-48
2020/12/29 09:45:45;;;;;;;9.73;8.23;;;9.50;82.40;;;;;;5115371;28;20044;-43
2020/12/29 09:48:15;;;;;;;10.02;7.60;;;9.50;83.00;;;;;;5114663;28;20082;-49
2020/12/29 09:50:42;;;;;;;9.30;7.32;;;9.50;82.40;;;;;;5115079;28;20475;-47
2020/12/29 09:53:07;;;;;;;11.23;8.57;;;9.50;82.40;;;;;;5114947;28;20543;-48
2020/12/29 09:55:33;;;;;;;9.45;7.38;;;9.50;82.40;;;;;;5115015;28;20075;-46
2020/12/29 09:57:59;;;;;;;10.40;7.80;;;9.50;82.40;;;;;;5114819;28;20055;-49
2020/12/29 10:00:25;;;;;;;10.15;7.45;;;9.50;82.40;;;;;;5114838;28;20089;-51
2020/12/29 10:02:51;;;;;;;10.07;7.95;;;9.50;82.40;;;;;;5113314;28;20046;-45
2020/12/29 10:05:17;;;;;;;8.52;7.05;;;9.50;82.40;;;;;;5115103;28;20130;-44
2020/12/29 10:07:46;;;;;;;9.88;7.70;;;9.50;82.40;;;;;;5115008;28;20070;-42
2020/12/29 10:10:12;;;;;;;9.32;6.85;;;9.50;82.30;;;;;;5108705;28;20043;-39
2020/12/29 10:12:39;;;;;;;8.43;7.25;;;9.50;82.40;;;;;;5106836;28;20055;-38
2020/12/29 10:15:09;;;;;;;8.63;6.72;;;9.50;83.00;;;;;;5113930;28;20054;-40
2020/12/29 10:17:35;;;;;;;8.25;6.07;;;9.50;82.30;;;;;;5113554;28;20135;-40
2020/12/29 10:20:01;;;;;;;7.93;6.40;;;9.50;82.30;;;;;;5114072;27;20050;-39
2020/12/29 10:22:26;;;;;;;8.27;7.38;;;9.50;82.30;;;;;;5108763;28;20055;-39
2020/12/29 10:24:53;;;;;;;8.57;7.03;;;9.50;83.00;;;;;;5113507;28;20047;-38
2020/12/29 10:27:18;;;;;;;8.35;6.40;;;9.50;82.30;;;;;;5113844;28;20043;-40
2020/12/29 10:29:44;;;;;;;8.63;6.88;;;9.50;82.50;;;;;;5113941;28;20051;-39
2020/12/29 10:32:10;;;;;;;7.75;6.43;;;9.50;82.30;;;;;;5113494;28;20054;-39
2020/12/29 10:34:35;;;;;;;8.65;6.70;;;9.50;82.30;;;;;;5113319;28;20050;-39
2020/12/29 10:37:01;;;;;;;9.27;6.88;;;9.50;82.30;;;;;;5113824;28;20051;-39
2020/12/29 10:39:27;;;;;;;8.10;6.30;;;9.50;82.30;;;;;;5113505;28;20475;-42
2020/12/29 10:41:52;;;;;;;7.60;6.32;;;9.50;82.30;;;;;;5113528;28;20124;-38
2020/12/29 10:44:18;;;;;;;6.55;5.53;;;9.50;82.30;;;;;;5113249;28;20142;-42
2020/12/29 10:46:47;;;;;;;7.47;6.68;;;9.50;82.30;;;;;;5113338;28;20039;-42
2020/12/29 10:49:14;;;;;;;9.20;6.43;;;9.50;82.30;;;;;;5113232;28;20051;-41
2020/12/29 10:51:40;;;;;;;8.27;6.20;;;9.50;82.30;;;;;;5112207;28;20508;-41
2020/12/29 10:54:06;;;;;;;8.18;6.20;;;9.50;82.20;;;;;;5113574;28;20035;-42
2020/12/29 10:56:32;;;;;;;7.45;6.03;;;9.50;82.30;;;;;;5096572;28;20044;-39
2020/12/29 10:58:58;;;;;;;7.18;5.85;;;9.50;82.20;;;;;;5087897;28;20056;-40
2020/12/29 11:01:24;;;;;;;7.10;5.55;;;9.60;82.30;;;;;;5086249;28;20056;-40
2020/12/29 11:03:51;;;;;;;8.27;6.18;;;9.50;82.20;;;;;;5087168;28;20093;-40
2020/12/29 11:06:19;;;;;;;7.13;5.45;;;9.50;82.20;;;;;;5088127;28;20055;-41
2020/12/29 11:08:46;;;;;;;6.97;5.60;;;9.50;82.20;;;;;;5087460;28;20048;-40
2020/12/29 11:11:12;;;;;;;7.13;5.82;;;9.50;82.30;;;;;;5102593;28;20089;-40
2020/12/29 11:13:39;;;;;;;6.15;5.35;;;9.60;82.30;;;;;;5107217;28;20085;-42
2020/12/29 11:16:05;;;;;;;7.00;5.45;;;9.60;82.30;;;;;;5108217;28;20050;-45
2020/12/29 11:18:30;;;;;;;7.00;5.72;;;9.60;82.20;;;;;;5107716;28;20048;-39
2020/12/29 11:20:56;;;;;;;6.88;5.45;;;9.50;82.20;;;;;;5107746;28;20044;-40
2020/12/29 11:23:22;;;;;;;6.70;5.65;;;9.60;82.30;;;;;;5107859;28;20079;-40
2020/12/29 11:25:49;;;;;;;7.57;5.75;;;9.50;82.20;;;;;;5107432;28;20555;-45
2020/12/29 11:28:16;;;;;;;7.15;5.30;;;9.50;82.20;;;;;;5108122;28;20408;-44
2020/12/29 11:30:43;;;;;;;6.30;5.38;;;9.50;82.20;;;;;;5107409;28;20694;-47
2020/12/29 11:33:09;;;;;;;6.00;5.10;;;9.50;82.20;;;;;;5107882;28;20062;-49
2020/12/29 11:35:35;;;;;;;6.20;5.15;;;9.60;82.30;;;;;;5107829;28;20052;-46
2020/12/29 11:38:00;;;;;;;7.40;5.32;;;9.50;82.20;;;;;;5107388;28;20116;-47
2020/12/29 11:40:26;;;;;;;5.57;4.75;;;9.60;82.20;;;;;;5107926;28;20048;-41
2020/12/29 11:42:52;;;;;;;6.85;5.28;;;9.50;82.10;;;;;;5104243;28;20055;-47
2020/12/29 11:45:17;;;;;;;6.72;4.88;;;9.50;82.10;;;;;;5087466;28;20808;-46
2020/12/29 11:47:45;;;;;;;6.55;5.32;;;9.50;82.20;;;;;;5087133;28;20059;-42
2020/12/29 11:50:11;;;;;;;6.68;5.50;;;9.50;82.20;;;;;;5087082;28;20481;-42
2020/12/29 11:52:37;;;;;;;5.75;4.97;;;9.50;82.20;;;;;;5087285;28;20056;-46
2020/12/29 11:55:03;;;;;;;6.22;5.22;;;9.50;82.10;;;;;;5119712;28;20396;-43
2020/12/29 11:57:28;;;;;;;6.53;5.10;;;9.50;82.20;;;;;;5090245;28;20046;-43
2020/12/29 11:59:54;;;;;;;6.03;5.25;;;9.50;82.20;;;;;;5106980;28;20066;-46
2020/12/29 12:02:20;;;;;;;6.07;4.93;;;9.50;82.20;;;;;;5095028;28;20088;-41
2020/12/29 12:04:46;;;;;;;6.47;5.60;;;9.50;82.20;;;;;;5091597;28;20046;-40
2020/12/29 12:07:11;;;;;;;6.25;5.07;;;9.50;82.20;;;;;;5104716;28;20100;-41
2020/12/29 12:09:40;;;;;;;6.18;4.88;;;9.60;82.30;;;;;;5107052;28;20051;-45
2020/12/29 12:12:06;;;;;;;6.13;4.82;;;9.50;82.10;;;;;;5106678;28;20055;-40
2020/12/29 12:14:32;;;;;;;5.28;4.47;;;9.50;82.20;;;;;;5107243;28;20052;-40
2020/12/29 12:16:58;;;;;;;5.55;4.63;;;9.50;82.10;;;;;;5107351;28;20392;-39
2020/12/29 12:19:24;;;;;;;6.22;4.70;;;9.50;82.20;;;;;;5107370;28;20138;-41
2020/12/29 12:21:50;;;;;;;6.30;4.80;;;9.60;82.20;;;;;;5106817;28;20415;-43
2020/12/29 12:24:15;;;;;;;6.38;5.28;;;9.50;82.10;;;;;;5107051;28;20521;-42
2020/12/29 12:26:41;;;;;;;5.57;4.57;;;9.50;82.10;;;;;;5110240;28;20047;-39
2020/12/29 12:29:07;;;;;;;4.80;3.80;;;9.50;82.10;;;;;;5110924;28;20142;-43
2020/12/29 12:31:32;;;;;;;4.97;4.25;;;9.50;82.10;;;;;;5110927;28;20070;-41
2020/12/29 12:33:58;;;;;;;5.03;4.28;;;9.50;82.10;;;;;;5110846;28;20043;-43
2020/12/29 12:36:24;;;;;;;5.88;4.68;;;9.60;82.20;;;;;;5110688;27;20079;-40
2020/12/29 12:38:50;;;;;;;6.13;4.72;;;9.60;82.20;;;;;;5110826;28;20093;-44
2020/12/29 12:41:16;;;;;;;5.18;4.40;;;9.50;82.10;;;;;;5109848;28;20101;-41
2020/12/29 12:43:44;;;;;;;5.60;4.80;;;9.60;82.20;;;;;;5108949;28;20059;-42
2020/12/29 12:46:09;;;;;;;6.68;4.60;;;9.50;82.70;;;;;;5110558;28;20672;-41
2020/12/29 12:48:36;;;;;;;5.05;4.43;;;9.60;82.20;;;;;;5110673;28;20138;-40
2020/12/29 12:51:02;;;;;;;5.72;4.65;;;9.60;82.10;;;;;;5110287;28;20047;-41
2020/12/29 12:53:28;;;;;;;5.60;4.40;;;9.60;82.10;;;;;;5110604;28;20055;-39
2020/12/29 12:55:54;;;;;;;4.72;3.88;;;9.50;82.20;;;;;;5110348;28;20055;-41